EGCCEGDM

Guest
Details From EGCC - Manchester
To EGDM - Boscombe Down
Flight Number -
Tags Generated
Created
Modified
Stats Distance 133 nm / 246 km
Max Altitude 0 ft / 0 m
Waypoints 2
Social Downloads 0
Likes 0
Share VATSIM

Download

Looking for another format? Having issues loading an existing format? Contact us
Advertisement - Login to hide

Notes

Generated

Route

EGCC EGDM

ID Type Via Altitude Latitude Longitude Leg Dist Tot Dist Heading (true) Name
O EGCC APT - 0 ft / 0 m 53.33197˚ -2.31066˚ - 0 nm - -
O EGDM APT - 0 ft / 0 m 51.15075˚ -1.75894˚ 132 nm 132 nm 171° / 171° -

Altitude Profile

Advertisement - Login to hide

EGCC

Details ICAO EGCC (MAN)
Name Manchester Intl
Region United Kingdom
Timezone Europe/London (UTC+0.0)
Stats Elevation 257 ft / 78 m (AMSL)
Location 53.347141° -2.283954°
Runways 2
Magnetic Variation 1.462° W

METAR

EGCC 140020Z AUTO 25009KT 9999 -RA BKN013/// //////TCU 02/01 Q0987 RERA TEMPO 4000 SHRASN BKN006

Decode

TAF

TAF EGCC 132300Z 1400/1506 23012KT 9999 SCT025 TEMPO 1400/1504 6000 SHRA BKN008 TEMPO 1400/1409 27020G35KT PROB40 TEMPO 1400/1504 2000 SHRASN BKN004 BKN010CB BECMG 1500/1503 34010KT

Decode

Departure Runways

ID Width Length Bearing (true) Bearing (mag) Surface Threshold Offset Overrun Length
05L 151 ft / 46 m 9,981 ft / 3,042 m 50.99° 52.45° Asphalt 1,401 ft / 427 m 0 ft / 0 m
05R 151 ft / 46 m 9,952 ft / 3,033 m 50.97° 52.43° Asphalt 0 ft / 0 m 26 ft / 8 m
23L 151 ft / 46 m 9,952 ft / 3,033 m 231.00° 232.46° Asphalt 561 ft / 171 m 0 ft / 0 m
23R 151 ft / 46 m 9,981 ft / 3,042 m 231.02° 232.48° Asphalt 597 ft / 182 m 0 ft / 0 m

EGDM

Details ICAO EGDM
Name Boscombe Down
Region United Kingdom
Timezone Europe/London (UTC+0.0)
Stats Elevation 407 ft / 124 m (AMSL)
Location 51.153231° -1.745444°
Runways 3
Magnetic Variation 0.974° W

METAR

EGDM 132350Z AUTO 28019KT 9999 NCD 04/M00 Q0994

Decode

TAF

Not found

Destination Runways

ID Width Length Bearing (true) Bearing (mag) Surface Threshold Offset Overrun Length
05 148 ft / 45 m 10,332 ft / 3,149 m 50.07° 51.04° Asphalt 492 ft / 150 m 0 ft / 0 m
05L 39 ft / 12 m 2,628 ft / 801 m 50.16° 51.13° Asphalt 0 ft / 0 m 0 ft / 0 m
17 148 ft / 45 m 6,144 ft / 1,873 m 166.59° 167.56° Asphalt 0 ft / 0 m 0 ft / 0 m
23 148 ft / 45 m 10,332 ft / 3,149 m 230.10° 231.07° Asphalt 213 ft / 65 m 0 ft / 0 m
23R 39 ft / 12 m 2,628 ft / 801 m 230.17° 231.14° Asphalt 115 ft / 35 m 0 ft / 0 m
35 148 ft / 45 m 6,144 ft / 1,873 m 346.60° 347.57° Asphalt 0 ft / 0 m 0 ft / 0 m

Approach Navaids

Runway Type Ident Frequency Range Bearing (true) Bearing (mag) Slope Elevation
23 Localiser BD 111.70 MHz 18 nm / 33 km 230.00° 230.97° - 407 ft / 124 m (AMSL)
23 Glidescope BD 111.70 MHz 18 nm / 33 km 230.00° 230.97° 3.00° 407 ft / 124 m (AMSL)

Popular Alternatives